Time;durP1;ratioP1;P1;durP2;ratioP2;P2;SDS_P1;SDS_P2;PMS_P1;PMS_P2;Temp;Humidity;BMP_temperature;BMP_pressure;BME280_temperature;BME280_humidity;BME280_pressure;Samples;Min_cycle;Max_cycle;Signal;HPM_P1;HPM_P2
2022/07/12 00:00:23;;;;;;;4.07;3.08;;;;;;;23.86;41.12;102015.94;4986695;28;20038;-80
2022/07/12 00:02:51;;;;;;;4.07;3.10;;;;;;;23.82;41.30;102014.50;4988708;28;20461;-80
2022/07/12 00:05:19;;;;;;;4.85;3.03;;;;;;;23.78;41.33;102016.75;4988606;28;20173;-80
2022/07/12 00:07:48;;;;;;;4.32;3.10;;;;;;;23.75;41.37;102008.75;4971221;28;20034;-80
2022/07/12 00:10:20;;;;;;;4.22;2.80;;;;;;;23.74;41.15;102009.78;4983291;28;20046;-81
2022/07/12 00:12:48;;;;;;;4.63;2.70;;;;;;;23.68;41.27;102015.09;4987045;28;20457;-81
2022/07/12 00:15:17;;;;;;;4.03;2.83;;;;;;;23.66;41.45;102012.47;4973240;28;20061;-81
2022/07/12 00:17:45;;;;;;;4.13;2.95;;;;;;;23.64;41.58;102014.53;4972385;28;20078;-80
2022/07/12 00:20:13;;;;;;;4.80;3.10;;;;;;;23.62;41.71;102007.41;4987428;28;20505;-81
2022/07/12 00:22:41;;;;;;;5.00;3.10;;;;;;;23.58;41.79;102004.09;4971037;28;20108;-80
2022/07/12 00:25:10;;;;;;;4.90;3.20;;;;;;;23.57;41.75;102012.56;4964322;28;20041;-80
2022/07/12 00:27:40;;;;;;;6.05;3.35;;;;;;;23.56;41.69;102011.69;4989011;28;20035;-80
2022/07/12 00:30:09;;;;;;;5.55;3.25;;;;;;;23.54;41.84;102012.91;4982974;28;20502;-80
2022/07/12 00:32:39;;;;;;;5.25;3.33;;;;;;;23.50;41.61;102009.56;4989133;28;20093;-81
2022/07/12 00:35:08;;;;;;;4.90;3.38;;;;;;;23.49;41.53;102005.91;4987864;28;20042;-80
2022/07/12 00:37:36;;;;;;;4.70;2.92;;;;;;;23.47;41.50;102007.94;4987969;28;20034;-80
2022/07/12 00:40:05;;;;;;;4.88;2.97;;;;;;;23.47;41.75;102002.38;4984052;28;20454;-80
2022/07/12 00:42:34;;;;;;;5.40;3.47;;;;;;;23.44;41.32;102002.72;4970595;28;20473;-80
2022/07/12 00:45:04;;;;;;;4.97;3.30;;;;;;;23.46;42.05;102008.97;4972999;28;20046;-80
2022/07/12 00:47:37;;;;;;;5.80;3.33;;;;;;;23.46;42.28;102000.66;4989611;28;20108;-80
2022/07/12 00:50:08;;;;;;;4.97;2.75;;;;;;;23.44;41.53;101996.31;4981347;28;20042;-80
2022/07/12 00:52:36;;;;;;;4.63;2.92;;;;;;;23.40;41.97;101983.78;4971608;28;20042;-80
2022/07/12 00:55:05;;;;;;;4.50;2.63;;;;;;;23.40;41.82;101973.56;4968571;28;20541;-80
2022/07/12 00:57:37;;;;;;;4.28;2.55;;;;;;;23.37;41.79;101978.56;4989644;28;20061;-80
2022/07/12 01:00:10;;;;;;;4.32;2.40;;;;;;;23.38;42.26;101974.78;4968813;28;20409;-80
2022/07/12 01:02:38;;;;;;;5.07;2.47;;;;;;;23.30;41.83;101978.34;4988204;28;20038;-80
2022/07/12 01:05:09;;;;;;;3.28;2.30;;;;;;;23.31;41.82;101976.41;4988289;28;20046;-81
2022/07/12 01:07:39;;;;;;;3.70;2.38;;;;;;;23.29;42.10;101978.50;4992805;28;20046;-81
2022/07/12 01:10:09;;;;;;;3.85;2.42;;;;;;;23.28;42.39;101979.50;4969924;28;20042;-81
2022/07/12 01:12:39;;;;;;;3.60;2.60;;;;;;;23.26;42.42;101973.25;4974115;28;20046;-81
2022/07/12 01:15:10;;;;;;;4.18;2.67;;;;;;;23.25;42.20;101966.84;4991259;28;20053;-81
2022/07/12 01:17:39;;;;;;;4.22;2.40;;;;;;;23.22;42.54;101969.06;4992451;28;20505;-81
2022/07/12 01:20:10;;;;;;;3.92;2.55;;;;;;;23.19;41.96;101975.78;4974959;28;20493;-82
2022/07/12 01:22:51;;;;;;;4.95;3.13;;;;;;;23.18;42.23;101973.16;4971570;28;20046;-82
2022/07/12 01:25:24;;;;;;;4.65;2.78;;;;;;;23.15;42.43;101968.81;4990428;28;20440;-81
2022/07/12 01:27:53;;;;;;;4.78;2.88;;;;;;;23.09;42.44;101975.84;4987140;28;20125;-82
2022/07/12 01:30:22;;;;;;;4.57;2.53;;;;;;;23.09;42.59;101978.63;4990683;28;20050;-81
2022/07/12 01:32:51;;;;;;;5.07;3.00;;;;;;;23.08;42.10;101976.88;4977970;28;20039;-80
2022/07/12 01:35:20;;;;;;;5.43;3.08;;;;;;;23.05;42.43;101968.91;4980062;28;20042;-81
2022/07/12 01:37:50;;;;;;;5.70;3.20;;;;;;;23.06;42.51;101973.38;4993186;28;20129;-81
2022/07/12 01:40:18;;;;;;;5.45;3.15;;;;;;;23.02;42.38;101979.41;4970798;28;20046;-81
2022/07/12 01:42:50;;;;;;;4.50;2.60;;;;;;;23.04;42.82;101975.47;4973140;28;20050;-81
2022/07/12 01:45:19;;;;;;;;;;;;;;;22.72;42.73;101987.00;4991253;28;20043;-81
2022/07/12 01:47:47;;;;;;;3.75;2.22;;;;;;;22.94;42.13;101979.31;4991745;28;19925;-81
2022/07/12 01:50:15;;;;;;;3.60;2.20;;;;;;;22.97;42.25;101981.78;4970897;28;20137;-81
2022/07/12 01:52:46;;;;;;;3.63;2.22;;;;;;;22.95;42.17;101981.94;4986820;28;20142;-81
2022/07/12 01:55:15;;;;;;;3.40;2.20;;;;;;;22.92;42.32;101985.00;4987899;28;20078;-81
2022/07/12 01:57:44;;;;;;;3.75;1.83;;;;;;;22.93;42.61;101991.41;4987513;28;20301;-81
2022/07/12 02:00:16;;;;;;;3.55;2.10;;;;;;;22.92;42.78;102004.38;4972824;28;20054;-81
2022/07/12 02:02:47;;;;;;;3.55;2.20;;;;;;;22.88;42.77;102004.88;4989382;28;20043;-81
2022/07/12 02:05:15;;;;;;;2.78;2.08;;;;;;;22.85;42.76;101997.72;4986763;28;20077;-81
2022/07/12 02:07:44;;;;;;;3.00;2.03;;;;;;;22.85;42.70;102010.69;4990470;28;20038;-81
2022/07/12 02:10:12;;;;;;;3.80;2.20;;;;;;;22.81;42.91;102007.38;4990753;28;20527;-81
2022/07/12 02:12:40;;;;;;;3.50;2.28;;;;;;;22.82;42.94;102014.66;4991793;28;20378;-81
2022/07/12 02:15:10;;;;;;;3.53;2.08;;;;;;;22.81;42.63;102009.28;4975258;28;20035;-81
2022/07/12 02:17:40;;;;;;;2.97;2.05;;;;;;;22.81;42.82;102006.50;4979958;28;20038;-81
2022/07/12 02:20:13;;;;;;;3.95;2.10;;;;;;;22.80;43.42;102008.41;4974368;28;20520;-81
2022/07/12 02:22:41;;;;;;;3.67;2.28;;;;;;;22.76;42.75;102006.97;4991711;28;20117;-80
2022/07/12 02:25:09;;;;;;;3.30;2.00;;;;;;;22.75;42.70;102005.22;4989987;28;20464;-81
2022/07/12 02:27:39;;;;;;;4.53;2.20;;;;;;;22.74;43.19;102004.34;4991152;28;20504;-81
2022/07/12 02:30:08;;;;;;;3.70;2.35;;;;;;;22.72;42.72;102011.91;4970352;28;20045;-81
2022/07/12 02:32:37;;;;;;;2.83;2.13;;;;;;;22.71;43.04;102010.16;4990200;28;20409;-81
2022/07/12 02:35:07;;;;;;;3.00;1.88;;;;;;;22.73;42.84;102013.63;4965928;28;20043;-81
2022/07/12 02:37:35;;;;;;;3.83;2.00;;;;;;;22.69;42.99;102008.56;4986387;28;20042;-81
2022/07/12 02:42:53;;;;;;;2.67;1.90;;;;;;;22.68;43.00;102026.19;4973169;28;20054;-81
2022/07/12 02:45:22;;;;;;;3.95;1.98;;;;;;;22.63;42.97;102034.97;4988393;28;20050;-81
2022/07/12 02:47:50;;;;;;;3.58;2.22;;;;;;;22.64;42.87;102024.78;4988064;28;20042;-81
2022/07/12 02:50:22;;;;;;;3.88;2.40;;;;;;;22.65;43.02;102035.69;4991056;28;20307;-81
2022/07/12 02:52:53;;;;;;;3.22;2.08;;;;;;;22.61;42.95;102028.72;4988989;28;20429;-80
2022/07/12 02:55:25;;;;;;;4.53;2.30;;;;;;;22.61;42.60;102020.41;4990465;28;20154;-81
2022/07/12 02:57:58;;;;;;;3.50;2.17;;;;;;;22.59;42.46;102027.13;4969617;28;21080;-80
2022/07/12 03:00:26;;;;;;;3.85;2.47;;;;;;;22.57;42.66;102024.50;4987652;28;20484;-80
2022/07/12 03:02:56;;;;;;;3.60;2.22;;;;;;;22.56;42.48;102021.91;4990962;28;20048;-80
2022/07/12 03:05:26;;;;;;;3.78;2.13;;;;;;;22.56;42.44;102024.66;4987630;28;20152;-81
2022/07/12 03:07:54;;;;;;;3.75;2.30;;;;;;;22.51;42.65;102022.34;4988582;28;20046;-80
2022/07/12 03:10:22;;;;;;;3.53;2.05;;;;;;;22.49;42.58;102023.50;4990294;28;20057;-80
2022/07/12 03:12:54;;;;;;;3.22;2.00;;;;;;;22.47;42.64;102020.91;4988436;28;20497;-80
2022/07/12 03:15:23;;;;;;;;;;;;;;;22.19;43.05;102024.63;4971546;28;20035;-80
2022/07/12 03:17:51;;;;;;;2.70;1.95;;;;;;;22.37;42.70;102020.06;4989207;28;19922;-80
2022/07/12 03:20:19;;;;;;;3.30;2.30;;;;;;;22.39;42.75;102023.56;4989736;28;20042;-80
2022/07/12 03:22:51;;;;;;;3.38;2.10;;;;;;;22.41;42.87;102015.97;4989769;28;20182;-80
2022/07/12 03:25:21;;;;;;;3.85;1.98;;;;;;;22.34;42.73;102018.47;4988683;28;20130;-80
2022/07/12 03:27:49;;;;;;;3.03;2.08;;;;;;;22.33;42.71;102022.25;4983544;28;20328;-80
2022/07/12 03:30:19;;;;;;;3.05;1.95;;;;;;;22.30;42.60;102028.09;4994549;28;20345;-80
2022/07/12 03:32:47;;;;;;;2.85;2.20;;;;;;;22.29;42.80;102029.13;4987078;28;20035;-80
2022/07/12 03:35:19;;;;;;;3.08;1.95;;;;;;;22.25;42.88;102030.44;4987815;28;20046;-80
2022/07/12 03:37:50;;;;;;;3.45;2.13;;;;;;;22.24;42.88;102025.91;4986332;28;20038;-80
2022/07/12 03:40:20;;;;;;;3.90;2.20;;;;;;;22.21;43.04;102022.59;4987940;28;20043;-80
2022/07/12 03:42:50;;;;;;;3.00;2.10;;;;;;;22.17;42.79;102019.25;4972361;28;20046;-80
2022/07/12 03:45:18;;;;;;;3.90;2.20;;;;;;;22.16;43.07;102027.69;4986613;28;20046;-80
2022/07/12 03:47:49;;;;;;;3.63;2.05;;;;;;;22.15;43.32;102024.06;4991616;28;20259;-80
2022/07/12 03:50:17;;;;;;;2.50;2.00;;;;;;;22.12;43.37;102023.50;4977090;28;20303;-81
2022/07/12 03:52:45;;;;;;;3.25;2.15;;;;;;;22.10;43.32;102018.09;4987486;28;20078;-80
2022/07/12 03:55:18;;;;;;;3.58;2.20;;;;;;;22.09;42.83;102023.78;4968211;28;20510;-80
2022/07/12 03:57:49;;;;;;;3.35;2.33;;;;;;;22.05;42.93;102008.50;4986496;28;20034;-80
2022/07/12 04:00:18;;;;;;;3.03;2.25;;;;;;;22.05;43.30;102014.03;4970101;28;20212;-80
2022/07/12 04:02:46;;;;;;;3.55;2.33;;;;;;;22.01;43.41;102014.34;4972572;28;20092;-80
2022/07/12 04:05:16;;;;;;;3.92;2.53;;;;;;;22.00;43.18;102018.13;4996124;28;20050;-80
2022/07/12 04:07:45;;;;;;;5.78;2.67;;;;;;;22.02;43.34;102026.28;4971907;28;20161;-80
2022/07/12 04:10:14;;;;;;;4.05;2.63;;;;;;;21.99;43.45;102027.44;4984035;28;20378;-80
2022/07/12 04:12:44;;;;;;;3.63;2.35;;;;;;;22.00;43.75;102029.19;4971829;28;20100;-80
2022/07/12 04:15:12;;;;;;;4.43;2.42;;;;;;;21.96;43.77;102022.19;4982984;28;20061;-80
2022/07/12 04:17:40;;;;;;;3.75;2.58;;;;;;;21.97;43.59;102031.38;4986281;28;20066;-78
2022/07/12 04:20:10;;;;;;;3.33;2.33;;;;;;;21.98;44.14;102035.91;4935585;28;20050;-79
2022/07/12 04:22:41;;;;;;;3.13;2.28;;;;;;;21.96;43.65;102036.00;4964269;28;20070;-79
2022/07/12 04:25:10;;;;;;;3.83;2.55;;;;;;;21.98;43.67;102042.31;4970020;28;20042;-79
2022/07/12 04:27:38;;;;;;;3.88;2.90;;;;;;;21.97;44.20;102036.91;4972427;28;20605;-79
2022/07/12 04:30:09;;;;;;;4.03;2.80;;;;;;;22.00;44.16;102043.00;4987821;28;20054;-79
2022/07/12 04:32:38;;;;;;;3.63;2.67;;;;;;;21.98;44.17;102038.66;4972331;28;20049;-79
2022/07/12 04:35:07;;;;;;;4.10;2.60;;;;;;;21.99;44.13;102038.50;4984852;28;20316;-79
2022/07/12 04:37:46;;;;;;;4.40;2.70;;;;;;;21.99;44.35;102037.63;4989034;28;20039;-79
2022/07/12 04:40:14;;;;;;;4.43;2.63;;;;;;;21.99;44.32;102032.97;4984738;28;20046;-78
2022/07/12 04:42:43;;;;;;;4.65;2.83;;;;;;;22.00;44.37;102040.25;4993636;28;20045;-79
2022/07/12 04:45:12;;;;;;;4.05;2.97;;;;;;;22.06;44.16;102040.69;4992392;28;20078;-79
2022/07/12 04:47:41;;;;;;;4.97;2.80;;;;;;;22.02;44.15;102038.22;4976904;28;20121;-79
2022/07/12 04:50:09;;;;;;;4.38;3.10;;;;;;;22.06;44.29;102046.22;4993337;28;20100;-81
2022/07/12 04:52:37;;;;;;;3.97;3.10;;;;;;;22.08;44.43;102046.91;4975100;28;20101;-81
2022/07/12 04:55:06;;;;;;;4.45;3.38;;;;;;;22.12;44.44;102054.78;4988160;28;20042;-80
2022/07/12 04:57:35;;;;;;;5.40;3.30;;;;;;;22.12;44.57;102049.25;4992520;28;20038;-80
2022/07/12 05:00:04;;;;;;;4.32;3.38;;;;;;;22.15;44.40;102046.22;4989576;28;20046;-78
2022/07/12 05:02:36;;;;;;;4.03;3.33;;;;;;;22.19;44.36;102049.53;4974235;28;20046;-78
2022/07/12 05:05:05;;;;;;;6.60;4.00;;;;;;;22.17;45.00;102057.97;4998244;28;20062;-79
2022/07/12 05:07:33;;;;;;;5.15;4.05;;;;;;;22.22;44.88;102063.94;4993267;28;20290;-78
2022/07/12 05:10:01;;;;;;;6.18;3.90;;;;;;;22.24;44.98;102058.25;4991626;28;20118;-78
2022/07/12 05:12:30;;;;;;;5.72;4.28;;;;;;;22.28;44.80;102068.00;4973077;28;21562;-79
2022/07/12 05:14:58;;;;;;;4.65;4.03;;;;;;;22.33;45.35;102061.00;4991618;28;20038;-78
2022/07/12 05:17:26;;;;;;;5.22;4.35;;;;;;;22.39;45.43;102065.94;4975561;28;20097;-81
2022/07/12 05:19:58;;;;;;;5.45;4.40;;;;;;;22.51;45.39;102062.97;4982462;28;20082;-79
2022/07/12 05:22:26;;;;;;;7.25;5.05;;;;;;;22.59;45.34;102055.66;4988192;28;20058;-78
2022/07/12 05:24:54;;;;;;;6.63;4.72;;;;;;;22.72;45.92;102058.13;4975210;28;20038;-79
2022/07/12 05:27:51;;;;;;;7.60;5.13;;;;;;;22.88;45.51;102063.03;4986157;28;20434;-77
2022/07/12 05:30:36;;;;;;;7.28;5.32;;;;;;;23.00;45.23;102057.13;4989023;28;20049;-77
2022/07/12 05:33:04;;;;;;;6.50;4.85;;;;;;;23.17;45.44;102060.09;4988407;28;20316;-76
2022/07/12 05:35:33;;;;;;;7.97;5.65;;;;;;;23.35;45.06;102053.56;4993057;28;20042;-77
2022/07/12 05:38:02;;;;;;;7.35;6.22;;;;;;;23.50;45.27;102062.22;4991830;28;20433;-79
2022/07/12 05:40:31;;;;;;;7.75;5.75;;;;;;;23.65;44.92;102057.88;4963901;28;20410;-79
2022/07/12 05:43:00;;;;;;;7.88;6.35;;;;;;;23.80;44.44;102052.66;4992826;28;20125;-77
2022/07/12 05:45:28;;;;;;;8.57;6.68;;;;;;;23.94;43.96;102052.09;4991800;28;20433;-79
2022/07/12 05:47:57;;;;;;;10.02;6.80;;;;;;;24.08;44.29;102048.72;4982910;28;20062;-78
2022/07/12 05:50:25;;;;;;;8.48;6.40;;;;;;;24.20;44.15;102047.47;4970702;28;20149;-79
2022/07/12 05:55:40;;;;;;;6.68;5.93;;;;;;;24.45;43.54;102042.97;4991875;28;20038;-79
2022/07/12 05:58:08;;;;;;;6.47;5.60;;;;;;;24.58;43.78;102051.69;4990812;28;20054;-79
2022/07/12 06:00:36;;;;;;;7.65;5.72;;;;;;;24.72;43.03;102044.66;4990061;28;20048;-79
2022/07/12 06:03:04;;;;;;;7.40;5.45;;;;;;;24.84;43.05;102062.78;4985177;28;20046;-73
2022/07/12 06:05:33;;;;;;;6.40;5.40;;;;;;;24.97;42.72;102060.44;4990004;28;20070;-72
2022/07/12 06:08:03;;;;;;;6.57;5.40;;;;;;;25.13;42.65;102056.84;4991547;28;20493;-72
2022/07/12 06:10:33;;;;;;;7.80;5.53;;;;;;;25.25;42.50;102058.28;4990021;28;20133;-72
2022/07/12 06:13:02;;;;;;;6.55;5.38;;;;;;;25.35;42.11;102059.03;4988855;28;20038;-72
2022/07/12 06:15:30;;;;;;;6.95;5.50;;;;;;;25.47;42.29;102058.69;4988486;28;20141;-72
2022/07/12 06:18:01;;;;;;;7.65;5.90;;;;;;;25.59;42.30;102061.00;4990922;28;20125;-72
2022/07/12 06:20:30;;;;;;;7.65;5.45;;;;;;;25.71;41.49;102055.97;4987533;28;20070;-72
2022/07/12 06:22:58;;;;;;;7.70;5.88;;;;;;;25.82;41.59;102061.19;4973912;28;20084;-72
2022/07/12 06:25:27;;;;;;;6.47;5.32;;;;;;;25.97;41.26;102064.16;4989822;28;20506;-72
2022/07/12 06:28:12;;;;;;;8.68;5.90;;;;;;;26.06;41.46;102072.34;4987505;28;20433;-72
2022/07/12 06:30:41;;;;;;;9.02;5.72;;;;;;;26.19;41.50;102079.31;4988531;28;20129;-71
2022/07/12 06:33:09;;;;;;;7.90;6.07;;;;;;;26.31;41.20;102086.28;4989280;28;20152;-71
2022/07/12 06:35:37;;;;;;;7.50;6.25;;;;;;;26.42;41.27;102088.72;4995602;28;20065;-71
2022/07/12 06:38:05;;;;;;;8.82;6.28;;;;;;;26.53;40.57;102105.03;4990991;28;20042;-71
2022/07/12 06:40:35;;;;;;;10.00;6.57;;;;;;;26.69;40.39;102112.50;4989776;28;20497;-71
2022/07/12 06:43:04;;;;;;;9.07;6.63;;;;;;;26.76;40.50;102114.41;4988812;28;20062;-70
2022/07/12 06:45:32;;;;;;;8.13;6.18;;;;;;;26.88;40.41;102124.13;4969215;28;20184;-71
2022/07/12 06:48:00;;;;;;;7.43;5.38;;;;;;;27.00;40.16;102127.44;4990767;28;20066;-71
2022/07/12 06:50:28;;;;;;;7.05;5.28;;;;;;;27.13;39.99;102124.06;4971127;28;20558;-71
2022/07/12 06:53:00;;;;;;;6.45;4.88;;;;;;;27.25;39.96;102129.09;4989464;28;20047;-71
2022/07/12 06:55:29;;;;;;;8.10;5.43;;;;;;;27.36;39.74;102130.59;4986191;28;20049;-71
2022/07/12 06:57:58;;;;;;;7.80;5.43;;;;;;;27.52;39.09;102129.63;4987437;28;20043;-71
2022/07/12 07:00:26;;;;;;;6.72;5.43;;;;;;;27.61;38.99;102132.25;4985763;28;20045;-78
2022/07/12 07:02:54;;;;;;;6.75;4.95;;;;;;;27.73;38.74;102131.84;4989061;28;20478;-81
2022/07/12 07:05:24;;;;;;;6.13;4.45;;;;;;;27.83;38.58;102121.31;4988246;28;20046;-81
2022/07/12 07:07:52;;;;;;;6.47;5.00;;;;;;;27.92;38.65;102123.00;4987361;28;20457;-81
2022/07/12 07:10:20;;;;;;;5.68;4.50;;;;;;;28.00;38.61;102123.78;4989237;28;20042;-82
2022/07/12 07:12:48;;;;;;;5.75;4.40;;;;;;;28.09;38.29;102120.91;4990591;28;20122;-81
2022/07/12 07:15:18;;;;;;;5.72;4.10;;;;;;;28.20;37.90;102114.94;4971534;28;20050;-81
2022/07/12 07:17:46;;;;;;;6.30;4.20;;;;;;;28.26;38.15;102119.75;4972722;28;20045;-81
2022/07/12 07:20:15;;;;;;;5.97;3.95;;;;;;;28.34;37.95;102114.09;4970279;28;20493;-81
2022/07/12 07:22:43;;;;;;;5.55;3.83;;;;;;;28.42;37.74;102101.97;4986267;28;20380;-82
2022/07/12 07:25:11;;;;;;;6.65;4.18;;;;;;;28.50;37.65;102101.91;4981773;28;20072;-82
2022/07/12 07:27:40;;;;;;;6.78;3.42;;;;;;;28.60;37.56;102114.56;4991069;28;20035;-83
2022/07/12 07:33:04;;;;;;;5.15;3.67;;;;;;;28.73;37.69;102123.16;4964759;28;20057;-82
2022/07/12 07:35:32;;;;;;;5.18;3.65;;;;;;;28.80;37.09;102136.41;4987028;28;20054;-82
2022/07/12 07:38:00;;;;;;;5.38;3.80;;;;;;;28.87;37.34;102127.06;4986007;28;20044;-82
2022/07/12 07:40:28;;;;;;;5.00;3.75;;;;;;;28.95;37.33;102128.88;4991422;28;20117;-81
2022/07/12 07:42:56;;;;;;;4.68;3.65;;;;;;;29.01;37.19;102126.19;4968390;28;20050;-82
2022/07/12 07:45:24;;;;;;;5.55;3.70;;;;;;;29.08;37.04;102127.16;4987555;28;20145;-82
2022/07/12 07:47:52;;;;;;;5.05;4.05;;;;;;;29.17;36.89;102127.03;4988980;28;20046;-82
2022/07/12 07:50:42;;;;;;;5.47;3.92;;;;;;;29.26;36.39;102128.69;4987391;28;20034;-82
2022/07/12 07:53:10;;;;;;;5.72;4.03;;;;;;;29.31;36.59;102124.25;4988291;28;20048;-82
2022/07/12 07:55:38;;;;;;;4.72;3.60;;;;;;;29.37;36.36;102129.09;4988467;28;20549;-82
2022/07/12 07:58:15;;;;;;;5.55;4.40;;;;;;;29.46;35.66;102125.13;4991357;28;20500;-81
2022/07/12 08:00:44;;;;;;;5.63;4.05;;;;;;;29.48;36.03;102122.97;4986390;28;20039;-83
2022/07/12 08:03:13;;;;;;;5.95;4.25;;;;;;;29.55;35.69;102125.03;4989718;28;20050;-82
2022/07/12 08:05:42;;;;;;;5.30;4.07;;;;;;;29.63;35.68;102131.38;4988873;28;20045;-83
2022/07/12 08:08:12;;;;;;;5.45;4.25;;;;;;;29.68;35.73;102133.56;4989533;28;20030;-85
2022/07/12 08:10:40;;;;;;;5.72;3.78;;;;;;;29.73;35.81;102129.09;4978437;28;20054;-83
2022/07/12 08:13:09;;;;;;;6.57;4.07;;;;;;;29.80;35.67;102129.19;4988796;28;20129;-83
2022/07/12 08:15:37;;;;;;;5.18;3.83;;;;;;;29.88;35.48;102132.75;4968006;28;20166;-82
2022/07/12 08:18:06;;;;;;;4.40;3.53;;;;;;;29.94;35.19;102125.50;4970417;28;20043;-82
2022/07/12 08:20:34;;;;;;;4.55;3.58;;;;;;;30.00;35.27;102124.69;4967547;28;20101;-81
2022/07/12 08:23:16;;;;;;;4.60;3.60;;;;;;;30.09;35.23;102119.84;4984193;28;20051;-81
2022/07/12 08:25:45;;;;;;;5.05;3.63;;;;;;;30.12;35.05;102116.66;4970277;28;20034;-81
2022/07/12 08:28:14;;;;;;;4.95;3.70;;;;;;;30.20;35.07;102120.19;4965949;28;20045;-82
2022/07/12 08:30:42;;;;;;;5.38;3.70;;;;;;;30.27;34.50;102118.28;4978413;28;20348;-82
2022/07/12 08:33:15;;;;;;;4.88;3.75;;;;;;;30.33;34.84;102119.41;4979405;28;20039;-81
2022/07/12 08:35:44;;;;;;;4.65;3.63;;;;;;;30.40;34.48;102111.06;4971519;28;20137;-81
2022/07/12 08:38:13;;;;;;;5.93;3.45;;;;;;;30.45;34.12;102108.53;4988962;28;20042;-81
2022/07/12 08:40:43;;;;;;;4.70;3.63;;;;;;;30.53;34.21;102108.41;4968431;28;20038;-81
2022/07/12 08:43:12;;;;;;;6.03;3.83;;;;;;;30.56;34.28;102103.25;4985509;28;20113;-81
2022/07/12 08:45:42;;;;;;;5.25;3.45;;;;;;;30.63;33.99;102108.94;4971614;28;20174;-80
2022/07/12 08:48:10;;;;;;;4.80;3.72;;;;;;;30.69;34.08;102099.69;4989740;28;20069;-81
2022/07/12 08:50:38;;;;;;;5.35;3.90;;;;;;;30.74;33.84;102099.94;4992861;28;20195;-81
2022/07/12 08:53:13;;;;;;;4.47;3.58;;;;;;;30.83;33.79;102107.13;4986110;28;20043;-80
2022/07/12 08:55:42;;;;;;;4.95;3.78;;;;;;;30.87;33.42;102102.84;4984646;28;20046;-80
2022/07/12 08:58:18;;;;;;;5.13;3.47;;;;;;;30.96;32.63;102104.41;4964187;28;20058;-81
2022/07/12 09:00:47;;;;;;;5.05;3.63;;;;;;;30.96;33.13;102100.75;4984829;28;20117;-80
2022/07/12 09:03:22;;;;;;;4.90;3.20;;;;;;;31.01;33.17;102092.56;4988528;28;20128;-82
2022/07/12 09:05:56;;;;;;;4.68;3.00;;;;;;;31.07;32.95;102093.69;4989109;28;20061;-82
2022/07/12 09:08:30;;;;;;;4.32;3.20;;;;;;;31.15;32.60;102094.41;4987184;28;20034;-82
2022/07/12 09:11:02;;;;;;;5.38;3.30;;;;;;;31.20;32.55;102094.66;4983935;28;20077;-82
2022/07/12 09:13:48;;;;;;;4.18;2.97;;;;;;;31.24;32.37;102083.84;4989202;28;20068;-81
2022/07/12 09:16:17;;;;;;;4.97;3.47;;;;;;;31.29;32.76;102084.97;4983748;28;20051;-82
2022/07/12 09:18:49;;;;;;;4.50;3.42;;;;;;;31.39;32.55;102087.38;4967289;28;20038;-81
2022/07/12 09:21:25;;;;;;;;;;;;;;;31.10;33.31;102090.50;4971947;28;20042;-81
2022/07/12 09:23:57;;;;;;;4.80;3.28;;;;;;;31.46;32.37;102093.91;4991227;28;19929;-81
2022/07/12 09:26:32;;;;;;;5.05;3.00;;;;;;;31.56;31.53;102099.97;4976078;28;20049;-81
2022/07/12 09:29:10;;;;;;;5.15;3.00;;;;;;;31.63;31.65;102091.59;4970392;28;21150;-82
2022/07/12 09:31:40;;;;;;;4.65;3.25;;;;;;;31.65;32.02;102098.72;4994620;28;20053;-82
2022/07/12 09:36:58;;;;;;;3.30;2.63;;;;;;;31.78;30.94;102097.06;4992059;28;20038;-81
2022/07/12 09:39:26;;;;;;;4.25;2.90;;;;;;;31.78;31.13;102100.72;4994686;28;20042;-81
2022/07/12 09:41:57;;;;;;;3.80;2.53;;;;;;;31.88;30.26;102098.34;4986915;28;20105;-82
2022/07/12 09:44:31;;;;;;;4.57;3.20;;;;;;;31.91;29.79;102111.13;4975170;28;20046;-82
2022/07/12 09:47:01;;;;;;;3.60;2.47;;;;;;;31.92;30.41;102099.69;4976768;28;20397;-85
2022/07/12 09:49:30;;;;;;;4.07;3.00;;;;;;;31.95;30.71;102102.06;4971228;28;20039;-84
2022/07/12 09:51:59;;;;;;;3.97;2.63;;;;;;;31.99;30.40;102105.31;4986086;28;20069;-83
2022/07/12 09:54:35;;;;;;;3.67;2.10;;;;;;;32.03;30.06;102101.88;4966227;28;20052;-83
2022/07/12 09:57:11;;;;;;;3.08;2.20;;;;;;;32.09;29.85;102091.69;4992094;28;20042;-85
2022/07/12 09:59:39;;;;;;;3.25;2.25;;;;;;;32.11;29.93;102093.22;4989094;28;20057;-86
2022/07/12 10:02:15;;;;;;;3.50;2.33;;;;;;;32.17;29.35;102088.72;4983706;28;20049;-86
2022/07/12 10:04:47;;;;;;;3.85;2.35;;;;;;;32.24;28.60;102100.81;4976423;28;20039;-83
2022/07/12 10:07:20;;;;;;;3.63;2.20;;;;;;;32.30;28.70;102099.09;4969734;28;20085;-82
2022/07/12 10:09:52;;;;;;;2.97;1.95;;;;;;;32.30;28.38;102102.75;4982878;28;20134;-84
2022/07/12 10:12:23;;;;;;;3.67;2.50;;;;;;;32.33;28.64;102101.47;4994477;28;20500;-83
2022/07/12 10:14:56;;;;;;;;;;;;;;;32.03;29.78;102090.63;4990215;28;20064;-86
2022/07/12 10:17:25;;;;;;;;;;;;;;;31.99;30.11;102094.94;4980344;28;20328;-86
2022/07/12 10:20:15;;;;;;;3.38;1.90;;;;;;;32.32;28.26;102092.19;4984852;28;19993;-89
2022/07/12 10:22:47;;;;;;;2.90;2.00;;;;;;;32.38;27.66;102093.25;4972169;28;20061;-85
2022/07/12 10:25:32;;;;;;;3.35;2.00;;;;;;;32.36;27.65;102098.25;4989597;28;20053;-82
2022/07/12 10:28:03;;;;;;;3.80;2.20;;;;;;;32.37;27.92;102092.38;4984749;28;20049;-82
2022/07/12 10:30:42;;;;;;;2.97;1.98;;;;;;;32.37;28.04;102088.69;4985310;28;20085;-80
2022/07/12 10:33:16;;;;;;;3.58;2.08;;;;;;;32.40;27.42;102091.97;4983164;28;20070;-83
2022/07/12 10:35:59;;;;;;;3.20;2.20;;;;;;;32.41;27.53;102092.81;4983493;28;20046;-82
2022/07/12 10:38:30;;;;;;;3.88;2.30;;;;;;;32.39;27.79;102089.34;4986745;28;20078;-83
2022/07/12 10:41:18;;;;;;;3.50;2.22;;;;;;;32.41;27.02;102082.44;4992701;28;20046;-82
2022/07/12 10:44:07;;;;;;;3.15;2.20;;;;;;;32.42;27.32;102084.19;4971776;28;20049;-84
2022/07/12 10:46:37;;;;;;;3.88;2.30;;;;;;;32.41;27.52;102081.59;4985452;28;20425;-84
2022/07/12 10:52:27;;;;;;;3.10;2.28;;;;;;;32.45;27.42;102078.09;4968146;28;20034;-84
2022/07/12 10:55:18;;;;;;;2.90;1.58;;;;;;;32.49;27.84;102082.22;4986914;28;20049;-84
2022/07/12 10:57:51;;;;;;;3.45;1.90;;;;;;;32.54;28.24;102075.94;4986007;28;20039;-83
2022/07/12 11:00:25;;;;;;;3.10;1.70;;;;;;;32.61;27.85;102068.38;4984489;28;20073;-84
2022/07/12 11:02:55;;;;;;;3.08;2.03;;;;;;;32.66;27.73;102071.38;4989040;28;20559;-84
2022/07/12 11:05:27;;;;;;;3.58;2.20;;;;;;;32.77;26.82;102070.75;4989765;28;20042;-82
2022/07/12 11:07:56;;;;;;;3.92;2.03;;;;;;;32.81;27.55;102080.47;4989905;28;20615;-85
2022/07/12 11:10:34;;;;;;;3.65;2.25;;;;;;;32.86;26.78;102080.66;4973538;28;20534;-82
2022/07/12 11:13:03;;;;;;;3.40;2.00;;;;;;;32.92;26.68;102084.56;4973386;28;20045;-84
2022/07/12 11:15:33;;;;;;;3.53;2.00;;;;;;;32.99;26.85;102084.56;4990974;28;20042;-84
2022/07/12 11:18:01;;;;;;;3.03;2.03;;;;;;;33.00;26.46;102073.06;4974335;28;20053;-84
2022/07/12 11:20:29;;;;;;;3.25;2.17;;;;;;;33.06;26.57;102071.31;4967766;28;20038;-84
2022/07/12 11:22:58;;;;;;;3.95;2.22;;;;;;;33.09;26.22;102068.94;4993779;28;20051;-78
2022/07/12 11:25:26;;;;;;;3.08;2.03;;;;;;;33.13;25.62;102058.94;4989056;28;20046;-84
2022/07/12 11:27:54;;;;;;;3.00;2.05;;;;;;;33.16;25.53;102055.69;4971171;28;20042;-83
2022/07/12 11:30:23;;;;;;;3.45;2.20;;;;;;;33.19;25.39;102051.59;4964856;28;21166;-81
2022/07/12 11:32:52;;;;;;;4.82;2.08;;;;;;;33.23;25.31;102048.13;4991693;28;20105;-83
2022/07/12 11:35:25;;;;;;;2.60;1.80;;;;;;;33.23;26.02;102036.00;4988911;28;20054;-84
2022/07/12 11:37:55;;;;;;;3.72;1.83;;;;;;;33.29;25.78;102051.13;4980746;28;20081;-83
2022/07/12 11:40:28;;;;;;;3.22;2.13;;;;;;;33.37;25.66;102048.03;4972842;28;20052;-85
2022/07/12 11:42:58;;;;;;;3.03;2.08;;;;;;;33.40;25.78;102039.16;4982531;28;20046;-82
2022/07/12 11:45:30;;;;;;;3.17;2.00;;;;;;;33.47;25.91;102039.97;4989791;28;20055;-83
2022/07/12 11:48:01;;;;;;;3.00;2.00;;;;;;;33.55;25.29;102036.91;4992565;28;20053;-82
2022/07/12 11:50:30;;;;;;;2.70;1.90;;;;;;;33.58;25.93;102030.81;4957548;28;20074;-85
2022/07/12 11:53:05;;;;;;;3.45;2.13;;;;;;;33.67;25.54;102021.03;4990536;28;20042;-85
2022/07/12 11:55:43;;;;;;;2.75;2.00;;;;;;;33.77;24.80;102020.56;4969773;28;20134;-84